sensor_id;sensor_type;location;lat;lon;timestamp;P1;durP1;ratioP1;P2;durP2;ratioP2
59986;SDS011;46181;51.498;5.392;2022-07-29T00:04:02;4.496;;;1.148;;
59986;SDS011;46181;51.498;5.392;2022-07-29T00:08:32;3.236;;;1.284;;
59986;SDS011;46181;51.498;5.392;2022-07-29T00:13:02;3.984;;;1.464;;
59986;SDS011;46181;51.498;5.392;2022-07-29T00:17:32;4.088;;;1.108;;
59986;SDS011;46181;51.498;5.392;2022-07-29T00:22:02;4.007999;;;1.384;;
59986;SDS011;46181;51.498;5.392;2022-07-29T00:26:32;3.384;;;1.332;;
59986;SDS011;46181;51.498;5.392;2022-07-29T00:31:02;4.56;;;1.372;;
59986;SDS011;46181;51.498;5.392;2022-07-29T00:35:32;5.36;;;1.408;;
59986;SDS011;46181;51.498;5.392;2022-07-29T00:40:02;3.916;;;1.488;;
59986;SDS011;46181;51.498;5.392;2022-07-29T00:44:32;2.424;;;1.188;;
59986;SDS011;46181;51.498;5.392;2022-07-29T00:49:02;3.076;;;1.148;;
59986;SDS011;46181;51.498;5.392;2022-07-29T00:53:32;3.988001;;;1.24;;
59986;SDS011;46181;51.498;5.392;2022-07-29T00:58:02;4.128;;;1.3;;
59986;SDS011;46181;51.498;5.392;2022-07-29T01:02:32;3.952001;;;1.248;;
59986;SDS011;46181;51.498;5.392;2022-07-29T01:07:02;4.072001;;;1.132;;
59986;SDS011;46181;51.498;5.392;2022-07-29T01:11:32;3.184;;;1.256;;
59986;SDS011;46181;51.498;5.392;2022-07-29T01:16:02;2.832;;;1.212;;
59986;SDS011;46181;51.498;5.392;2022-07-29T01:20:36;3.879999;;;1.436;;
59986;SDS011;46181;51.498;5.392;2022-07-29T01:25:10;4.332;;;1.708;;
59986;SDS011;46181;51.498;5.392;2022-07-29T01:29:32;4.495999;;;1.776;;
59986;SDS011;46181;51.498;5.392;2022-07-29T01:34:03;5.484001;;;2.516;;
59986;SDS011;46181;51.498;5.392;2022-07-29T01:38:32;6.264;;;3.112;;
59986;SDS011;46181;51.498;5.392;2022-07-29T01:43:03;7.260001;;;3.135999;;
59986;SDS011;46181;51.498;5.392;2022-07-29T01:47:35;5.3;;;2.252;;
59986;SDS011;46181;51.498;5.392;2022-07-29T01:52:03;5.968001;;;2.168;;
59986;SDS011;46181;51.498;5.392;2022-07-29T01:56:32;5.888001;;;2.032;;
59986;SDS011;46181;51.498;5.392;2022-07-29T02:01:02;4.156;;;1.68;;
59986;SDS011;46181;51.498;5.392;2022-07-29T02:05:32;5.168001;;;1.932;;
59986;SDS011;46181;51.498;5.392;2022-07-29T02:10:02;3.992;;;1.604;;
59986;SDS011;46181;51.498;5.392;2022-07-29T02:14:34;4.695999;;;1.816;;
59986;SDS011;46181;51.498;5.392;2022-07-29T02:19:02;4.416;;;1.808;;
59986;SDS011;46181;51.498;5.392;2022-07-29T02:23:32;3.215999;;;1.84;;
59986;SDS011;46181;51.498;5.392;2022-07-29T02:28:02;5.248;;;1.888;;
59986;SDS011;46181;51.498;5.392;2022-07-29T02:32:32;4.36;;;1.872;;
59986;SDS011;46181;51.498;5.392;2022-07-29T02:37:02;4.624;;;2.044;;
59986;SDS011;46181;51.498;5.392;2022-07-29T02:41:33;3.816;;;1.808;;
59986;SDS011;46181;51.498;5.392;2022-07-29T02:46:02;5.868001;;;1.844;;
59986;SDS011;46181;51.498;5.392;2022-07-29T02:50:32;4.064001;;;1.864;;
59986;SDS011;46181;51.498;5.392;2022-07-29T02:55:08;3.288;;;1.876;;
59986;SDS011;46181;51.498;5.392;2022-07-29T02:59:32;5.912001;;;1.984;;
59986;SDS011;46181;51.498;5.392;2022-07-29T03:04:03;5.424;;;2.224;;
59986;SDS011;46181;51.498;5.392;2022-07-29T03:08:32;5.928001;;;2.064;;
59986;SDS011;46181;51.498;5.392;2022-07-29T03:13:02;4.308001;;;2.028;;
59986;SDS011;46181;51.498;5.392;2022-07-29T03:17:32;3.836001;;;2.108;;
59986;SDS011;46181;51.498;5.392;2022-07-29T03:22:02;4.824;;;1.976;;
59986;SDS011;46181;51.498;5.392;2022-07-29T03:26:32;4.464001;;;1.916;;
59986;SDS011;46181;51.498;5.392;2022-07-29T03:31:02;6.075999;;;2.236;;
59986;SDS011;46181;51.498;5.392;2022-07-29T03:35:32;3.32;;;1.94;;
59986;SDS011;46181;51.498;5.392;2022-07-29T03:40:02;5.644;;;2.124;;
59986;SDS011;46181;51.498;5.392;2022-07-29T03:44:32;6.28;;;1.888;;
59986;SDS011;46181;51.498;5.392;2022-07-29T03:49:03;4.472;;;1.98;;
59986;SDS011;46181;51.498;5.392;2022-07-29T03:53:32;4.216;;;1.94;;
59986;SDS011;46181;51.498;5.392;2022-07-29T03:58:02;5.903998;;;2.004;;
59986;SDS011;46181;51.498;5.392;2022-07-29T04:02:32;4.124;;;1.848;;
59986;SDS011;46181;51.498;5.392;2022-07-29T04:07:02;5.784;;;1.792;;
59986;SDS011;46181;51.498;5.392;2022-07-29T04:11:32;5.476;;;2.272;;
59986;SDS011;46181;51.498;5.392;2022-07-29T04:16:02;5.216;;;1.848;;
59986;SDS011;46181;51.498;5.392;2022-07-29T04:20:32;4.231999;;;1.68;;
59986;SDS011;46181;51.498;5.392;2022-07-29T04:25:02;6.168001;;;1.872;;
59986;SDS011;46181;51.498;5.392;2022-07-29T04:29:32;4.443999;;;1.908;;
59986;SDS011;46181;51.498;5.392;2022-07-29T04:34:02;3.224;;;1.836;;
59986;SDS011;46181;51.498;5.392;2022-07-29T04:38:32;3.132;;;1.884;;
59986;SDS011;46181;51.498;5.392;2022-07-29T04:43:02;3.888;;;2.06;;
59986;SDS011;46181;51.498;5.392;2022-07-29T04:47:32;3.404;;;2.008;;
59986;SDS011;46181;51.498;5.392;2022-07-29T04:52:02;5.484;;;2.099999;;
59986;SDS011;46181;51.498;5.392;2022-07-29T04:56:32;3.668;;;1.776;;
59986;SDS011;46181;51.498;5.392;2022-07-29T05:01:02;3.460001;;;2.192;;
59986;SDS011;46181;51.498;5.392;2022-07-29T05:05:32;5.848001;;;2.344;;
59986;SDS011;46181;51.498;5.392;2022-07-29T05:10:02;5.144;;;2.232;;
59986;SDS011;46181;51.498;5.392;2022-07-29T05:14:32;4.08;;;2.292;;
59986;SDS011;46181;51.498;5.392;2022-07-29T05:19:02;6.248001;;;2.288;;
59986;SDS011;46181;51.498;5.392;2022-07-29T05:23:32;4.668001;;;2.392;;
59986;SDS011;46181;51.498;5.392;2022-07-29T05:28:02;4.268001;;;2.592;;
59986;SDS011;46181;51.498;5.392;2022-07-29T05:32:32;5.228;;;2.728;;
59986;SDS011;46181;51.498;5.392;2022-07-29T05:37:02;6.088;;;2.848;;
59986;SDS011;46181;51.498;5.392;2022-07-29T05:41:35;7.1;;;2.736001;;
59986;SDS011;46181;51.498;5.392;2022-07-29T05:46:02;4.884;;;2.912;;
59986;SDS011;46181;51.498;5.392;2022-07-29T05:50:32;6.012001;;;3.032;;
59986;SDS011;46181;51.498;5.392;2022-07-29T05:55:02;5.176001;;;2.856001;;
59986;SDS011;46181;51.498;5.392;2022-07-29T05:59:34;5.876;;;3.308;;
59986;SDS011;46181;51.498;5.392;2022-07-29T06:04:02;5.476001;;;3.34;;
59986;SDS011;46181;51.498;5.392;2022-07-29T06:08:32;5.932001;;;3.204;;
59986;SDS011;46181;51.498;5.392;2022-07-29T06:13:02;7.124;;;3.424001;;
59986;SDS011;46181;51.498;5.392;2022-07-29T06:17:32;8.084;;;3.356;;
59986;SDS011;46181;51.498;5.392;2022-07-29T06:22:02;6.583998;;;3.532;;
59986;SDS011;46181;51.498;5.392;2022-07-29T06:26:32;6.416;;;3.627999;;
59986;SDS011;46181;51.498;5.392;2022-07-29T06:31:02;7.187999;;;3.416001;;
59986;SDS011;46181;51.498;5.392;2022-07-29T06:35:32;7.204;;;3.516;;
59986;SDS011;46181;51.498;5.392;2022-07-29T06:40:02;6.340001;;;3.615999;;
59986;SDS011;46181;51.498;5.392;2022-07-29T06:44:32;6.900001;;;4.284;;
59986;SDS011;46181;51.498;5.392;2022-07-29T06:49:02;6.66;;;4.032;;
59986;SDS011;46181;51.498;5.392;2022-07-29T06:53:32;6.44;;;3.984;;
59986;SDS011;46181;51.498;5.392;2022-07-29T06:58:02;6.792001;;;4.420001;;
59986;SDS011;46181;51.498;5.392;2022-07-29T07:02:32;6.327999;;;4.087999;;
59986;SDS011;46181;51.498;5.392;2022-07-29T07:07:02;5.488001;;;3.264;;
59986;SDS011;46181;51.498;5.392;2022-07-29T07:11:32;7.292001;;;3.72;;
59986;SDS011;46181;51.498;5.392;2022-07-29T07:16:02;6.068;;;3.408;;
59986;SDS011;46181;51.498;5.392;2022-07-29T07:20:32;6.116;;;3.467999;;
59986;SDS011;46181;51.498;5.392;2022-07-29T07:25:02;7.296;;;3.659999;;
59986;SDS011;46181;51.498;5.392;2022-07-29T07:29:32;6.783999;;;3.412001;;
59986;SDS011;46181;51.498;5.392;2022-07-29T07:34:02;6.403999;;;3.728001;;
59986;SDS011;46181;51.498;5.392;2022-07-29T07:38:32;5.039999;;;3.204;;
59986;SDS011;46181;51.498;5.392;2022-07-29T07:43:02;5.948;;;3.316001;;
59986;SDS011;46181;51.498;5.392;2022-07-29T07:47:32;5.4;;;3.208001;;
59986;SDS011;46181;51.498;5.392;2022-07-29T07:52:02;5.708;;;3.579999;;
59986;SDS011;46181;51.498;5.392;2022-07-29T07:56:32;6.004;;;2.971999;;
59986;SDS011;46181;51.498;5.392;2022-07-29T08:01:02;6.156;;;3.440001;;
59986;SDS011;46181;51.498;5.392;2022-07-29T08:05:32;5.147999;;;3.424001;;
59986;SDS011;46181;51.498;5.392;2022-07-29T08:10:02;7.639999;;;3.212;;
59986;SDS011;46181;51.498;5.392;2022-07-29T08:14:32;6.896;;;3.328001;;
59986;SDS011;46181;51.498;5.392;2022-07-29T08:19:02;6.247999;;;3.696;;
59986;SDS011;46181;51.498;5.392;2022-07-29T08:23:32;6.639999;;;3.659999;;
59986;SDS011;46181;51.498;5.392;2022-07-29T08:28:02;6.787999;;;3.508;;
59986;SDS011;46181;51.498;5.392;2022-07-29T08:32:32;5.848;;;3.2;;
59986;SDS011;46181;51.498;5.392;2022-07-29T08:37:02;8.132;;;3.412;;
59986;SDS011;46181;51.498;5.392;2022-07-29T08:41:32;6.707999;;;3.252;;
59986;SDS011;46181;51.498;5.392;2022-07-29T08:46:02;6.328002;;;3.468;;
59986;SDS011;46181;51.498;5.392;2022-07-29T08:50:32;6.220001;;;3.068;;
59986;SDS011;46181;51.498;5.392;2022-07-29T08:55:02;7.320001;;;3.099999;;
59986;SDS011;46181;51.498;5.392;2022-07-29T08:59:32;6.820001;;;3.555999;;
59986;SDS011;46181;51.498;5.392;2022-07-29T09:04:02;5.551999;;;3.188001;;
59986;SDS011;46181;51.498;5.392;2022-07-29T09:08:32;6.56;;;3.559999;;
59986;SDS011;46181;51.498;5.392;2022-07-29T09:13:02;7.776001;;;3.567999;;
59986;SDS011;46181;51.498;5.392;2022-07-29T09:17:46;4.796;;;3.031999;;
59986;SDS011;46181;51.498;5.392;2022-07-29T09:22:03;5.548001;;;3.016;;
59986;SDS011;46181;51.498;5.392;2022-07-29T09:26:33;6.107999;;;2.688;;
59986;SDS011;46181;51.498;5.392;2022-07-29T09:31:02;5.287999;;;2.716;;
59986;SDS011;46181;51.498;5.392;2022-07-29T09:35:32;5.372;;;2.464;;
59986;SDS011;46181;51.498;5.392;2022-07-29T09:40:02;4.072;;;2.328;;
59986;SDS011;46181;51.498;5.392;2022-07-29T09:49:12;6.440001;;;3.16;;
59986;SDS011;46181;51.498;5.392;2022-07-29T09:53:36;7.164001;;;2.884;;
59986;SDS011;46181;51.498;5.392;2022-07-29T10:02:33;5.016;;;2.492;;
59986;SDS011;46181;51.498;5.392;2022-07-29T10:07:02;3.908001;;;2.34;;
59986;SDS011;46181;51.498;5.392;2022-07-29T10:11:32;4.368001;;;2.08;;
59986;SDS011;46181;51.498;5.392;2022-07-29T10:16:02;7.264;;;2.596;;
59986;SDS011;46181;51.498;5.392;2022-07-29T10:20:32;6.048;;;2.108;;
59986;SDS011;46181;51.498;5.392;2022-07-29T10:25:02;6.696001;;;2.099999;;
59986;SDS011;46181;51.498;5.392;2022-07-29T10:29:32;5.968;;;2.628;;
59986;SDS011;46181;51.498;5.392;2022-07-29T10:34:04;5.267999;;;2.108;;
59986;SDS011;46181;51.498;5.392;2022-07-29T10:38:45;5.42;;;2.192;;
59986;SDS011;46181;51.498;5.392;2022-07-29T10:43:04;4.768;;;2.24;;
59986;SDS011;46181;51.498;5.392;2022-07-29T10:47:32;6.151999;;;2.564;;
59986;SDS011;46181;51.498;5.392;2022-07-29T10:52:06;6.184;;;2.400001;;
59986;SDS011;46181;51.498;5.392;2022-07-29T10:56:32;5.228;;;2.384;;
59986;SDS011;46181;51.498;5.392;2022-07-29T11:01:02;4.284;;;2.296;;
59986;SDS011;46181;51.498;5.392;2022-07-29T11:05:32;4.579999;;;2.188;;
59986;SDS011;46181;51.498;5.392;2022-07-29T11:23:32;6.124;;;2.099999;;
59986;SDS011;46181;51.498;5.392;2022-07-29T11:28:08;6;;;2.592;;
59986;SDS011;46181;51.498;5.392;2022-07-29T11:32:40;6.283999;;;3.011999;;
59986;SDS011;46181;51.498;5.392;2022-07-29T11:41:32;4.376;;;2.384;;
59986;SDS011;46181;51.498;5.392;2022-07-29T11:46:02;4.012001;;;1.616;;
59986;SDS011;46181;51.498;5.392;2022-07-29T11:50:34;5.516;;;1.988;;
59986;SDS011;46181;51.498;5.392;2022-07-29T11:55:03;4.216;;;1.524;;
59986;SDS011;46181;51.498;5.392;2022-07-29T11:59:32;4.2;;;1.66;;
59986;SDS011;46181;51.498;5.392;2022-07-29T12:04:06;4.96;;;1.6;;
59986;SDS011;46181;51.498;5.392;2022-07-29T12:08:38;4.436;;;1.756;;
59986;SDS011;46181;51.498;5.392;2022-07-29T12:13:02;8.78;;;2.307999;;
59986;SDS011;46181;51.498;5.392;2022-07-29T12:17:33;4.428001;;;1.924;;
59986;SDS011;46181;51.498;5.392;2022-07-29T12:22:02;4.732001;;;2.104;;
59986;SDS011;46181;51.498;5.392;2022-07-29T12:26:32;4.151999;;;1.348;;
59986;SDS011;46181;51.498;5.392;2022-07-29T12:31:02;4.200001;;;1.324;;
59986;SDS011;46181;51.498;5.392;2022-07-29T12:35:32;3.556;;;1.852;;
59986;SDS011;46181;51.498;5.392;2022-07-29T12:40:02;5.687999;;;2.099999;;
59986;SDS011;46181;51.498;5.392;2022-07-29T12:49:03;3.98;;;1.856;;
59986;SDS011;46181;51.498;5.392;2022-07-29T12:53:32;4.368;;;1.62;;
59986;SDS011;46181;51.498;5.392;2022-07-29T12:58:02;3.972;;;1.588;;
59986;SDS011;46181;51.498;5.392;2022-07-29T13:02:32;5.212001;;;2.116;;
59986;SDS011;46181;51.498;5.392;2022-07-29T13:07:03;5.592001;;;2.288;;
59986;SDS011;46181;51.498;5.392;2022-07-29T13:11:33;5.263999;;;1.88;;
59986;SDS011;46181;51.498;5.392;2022-07-29T13:16:08;4.716;;;1.936;;
59986;SDS011;46181;51.498;5.392;2022-07-29T13:20:32;6.096;;;1.832;;
59986;SDS011;46181;51.498;5.392;2022-07-29T13:25:02;4.652;;;1.808;;
59986;SDS011;46181;51.498;5.392;2022-07-29T13:29:32;7.068001;;;1.808;;
59986;SDS011;46181;51.498;5.392;2022-07-29T13:34:02;5.652001;;;1.9;;
59986;SDS011;46181;51.498;5.392;2022-07-29T13:38:32;5.463999;;;1.8;;
59986;SDS011;46181;51.498;5.392;2022-07-29T13:43:02;5.024;;;1.872;;
59986;SDS011;46181;51.498;5.392;2022-07-29T13:47:32;4.02;;;1.816;;
59986;SDS011;46181;51.498;5.392;2022-07-29T13:52:02;3.316001;;;1.772;;
59986;SDS011;46181;51.498;5.392;2022-07-29T13:56:32;3.592;;;1.868;;
59986;SDS011;46181;51.498;5.392;2022-07-29T14:01:02;4.576;;;1.708;;
59986;SDS011;46181;51.498;5.392;2022-07-29T14:05:32;4.572;;;1.86;;
59986;SDS011;46181;51.498;5.392;2022-07-29T14:10:03;3.695999;;;1.408;;
59986;SDS011;46181;51.498;5.392;2022-07-29T14:14:32;4.26;;;1.592;;
59986;SDS011;46181;51.498;5.392;2022-07-29T14:19:03;4.356;;;1.8;;
59986;SDS011;46181;51.498;5.392;2022-07-29T14:23:32;6.588;;;1.812;;
59986;SDS011;46181;51.498;5.392;2022-07-29T14:28:02;3.68;;;1.4;;
59986;SDS011;46181;51.498;5.392;2022-07-29T14:32:32;4.7;;;1.448;;
59986;SDS011;46181;51.498;5.392;2022-07-29T14:37:02;6.548;;;1.54;;
59986;SDS011;46181;51.498;5.392;2022-07-29T14:41:32;3.308;;;1.464;;
59986;SDS011;46181;51.498;5.392;2022-07-29T14:46:02;3.636;;;1.448;;
59986;SDS011;46181;51.498;5.392;2022-07-29T14:50:34;7.164;;;1.564;;
59986;SDS011;46181;51.498;5.392;2022-07-29T14:55:03;4.008;;;1.732;;
59986;SDS011;46181;51.498;5.392;2022-07-29T14:59:32;5.851999;;;1.592;;
59986;SDS011;46181;51.498;5.392;2022-07-29T15:04:03;4.544001;;;1.4;;
59986;SDS011;46181;51.498;5.392;2022-07-29T15:08:32;4.336;;;1.516;;
59986;SDS011;46181;51.498;5.392;2022-07-29T15:13:02;6.084;;;1.764;;
59986;SDS011;46181;51.498;5.392;2022-07-29T15:17:32;3.372;;;1.568;;
59986;SDS011;46181;51.498;5.392;2022-07-29T15:22:02;2.948;;;1.292;;
59986;SDS011;46181;51.498;5.392;2022-07-29T15:26:32;6.124;;;2.86;;
59986;SDS011;46181;51.498;5.392;2022-07-29T15:31:03;4.92;;;1.988;;
59986;SDS011;46181;51.498;5.392;2022-07-29T15:35:32;4.136001;;;1.424;;
59986;SDS011;46181;51.498;5.392;2022-07-29T15:40:03;4.924;;;1.708;;
59986;SDS011;46181;51.498;5.392;2022-07-29T15:44:32;4.092;;;1.564;;
59986;SDS011;46181;51.498;5.392;2022-07-29T15:49:03;6.964;;;2.268;;
59986;SDS011;46181;51.498;5.392;2022-07-29T15:53:32;3.8;;;1.332;;
59986;SDS011;46181;51.498;5.392;2022-07-29T15:58:02;6.352;;;1.648001;;
59986;SDS011;46181;51.498;5.392;2022-07-29T16:02:32;6.444;;;1.748;;
59986;SDS011;46181;51.498;5.392;2022-07-29T16:07:03;3.772;;;1.344;;
59986;SDS011;46181;51.498;5.392;2022-07-29T16:11:32;3.948;;;1.48;;
59986;SDS011;46181;51.498;5.392;2022-07-29T16:16:03;4.476;;;1.532;;
59986;SDS011;46181;51.498;5.392;2022-07-29T16:20:33;4.472;;;1.708;;
59986;SDS011;46181;51.498;5.392;2022-07-29T16:25:03;5.692;;;1.784;;
59986;SDS011;46181;51.498;5.392;2022-07-29T16:29:32;6.316;;;2.168;;
59986;SDS011;46181;51.498;5.392;2022-07-29T16:34:02;5;;;1.924;;
59986;SDS011;46181;51.498;5.392;2022-07-29T16:38:32;6.860001;;;1.912;;
59986;SDS011;46181;51.498;5.392;2022-07-29T16:43:02;4.872;;;1.832;;
59986;SDS011;46181;51.498;5.392;2022-07-29T16:47:32;4.236001;;;1.32;;
59986;SDS011;46181;51.498;5.392;2022-07-29T16:52:03;6.147999;;;1.752;;
59986;SDS011;46181;51.498;5.392;2022-07-29T16:56:33;4.436001;;;1.628;;
59986;SDS011;46181;51.498;5.392;2022-07-29T17:01:03;3.928;;;1.516;;
59986;SDS011;46181;51.498;5.392;2022-07-29T17:05:33;3.955999;;;1.524;;
59986;SDS011;46181;51.498;5.392;2022-07-29T17:10:03;3.519999;;;1.696;;
59986;SDS011;46181;51.498;5.392;2022-07-29T17:14:32;6.028;;;2.044;;
59986;SDS011;46181;51.498;5.392;2022-07-29T17:19:03;6.508;;;2.236;;
59986;SDS011;46181;51.498;5.392;2022-07-29T17:23:32;3.500001;;;1.764;;
59986;SDS011;46181;51.498;5.392;2022-07-29T17:28:03;7.088;;;2.496;;
59986;SDS011;46181;51.498;5.392;2022-07-29T17:32:32;6.4;;;2.152;;
59986;SDS011;46181;51.498;5.392;2022-07-29T17:37:03;5.487999;;;2.064;;
59986;SDS011;46181;51.498;5.392;2022-07-29T17:41:33;5.464;;;1.816;;
59986;SDS011;46181;51.498;5.392;2022-07-29T17:46:02;6.76;;;2.368;;
59986;SDS011;46181;51.498;5.392;2022-07-29T17:50:35;4.023999;;;1.791999;;
59986;SDS011;46181;51.498;5.392;2022-07-29T17:55:03;4.372;;;2.5;;
59986;SDS011;46181;51.498;5.392;2022-07-29T17:59:33;4.616001;;;1.976;;
59986;SDS011;46181;51.498;5.392;2022-07-29T18:04:03;4.76;;;2.024;;
59986;SDS011;46181;51.498;5.392;2022-07-29T18:08:33;5.464;;;2.184;;
59986;SDS011;46181;51.498;5.392;2022-07-29T18:13:03;6.356001;;;2.14;;
59986;SDS011;46181;51.498;5.392;2022-07-29T18:17:33;4.644;;;2.124;;
59986;SDS011;46181;51.498;5.392;2022-07-29T18:22:03;4.335999;;;1.848;;
59986;SDS011;46181;51.498;5.392;2022-07-29T18:26:33;6.227999;;;1.9;;
59986;SDS011;46181;51.498;5.392;2022-07-29T18:31:03;6.464001;;;2.192;;
59986;SDS011;46181;51.498;5.392;2022-07-29T18:35:33;4.348001;;;1.908;;
59986;SDS011;46181;51.498;5.392;2022-07-29T18:40:03;5.691999;;;1.924;;
59986;SDS011;46181;51.498;5.392;2022-07-29T18:44:33;4.64;;;1.64;;
59986;SDS011;46181;51.498;5.392;2022-07-29T18:49:03;6.92;;;1.896;;
59986;SDS011;46181;51.498;5.392;2022-07-29T18:53:33;3.876;;;1.58;;
59986;SDS011;46181;51.498;5.392;2022-07-29T18:58:03;6.676001;;;2.472;;
59986;SDS011;46181;51.498;5.392;2022-07-29T19:02:33;7.072;;;2.004;;
59986;SDS011;46181;51.498;5.392;2022-07-29T19:07:03;6.24;;;1.956;;
59986;SDS011;46181;51.498;5.392;2022-07-29T19:11:33;8.348;;;2.184;;
59986;SDS011;46181;51.498;5.392;2022-07-29T19:16:03;7.344;;;1.832;;
59986;SDS011;46181;51.498;5.392;2022-07-29T19:20:35;5.724;;;1.644;;
59986;SDS011;46181;51.498;5.392;2022-07-29T19:25:06;5.5;;;1.9;;
59986;SDS011;46181;51.498;5.392;2022-07-29T19:29:33;4.688001;;;1.588;;
59986;SDS011;46181;51.498;5.392;2022-07-29T19:34:03;7.084;;;2.512;;
59986;SDS011;46181;51.498;5.392;2022-07-29T19:38:33;4.452;;;1.9;;
59986;SDS011;46181;51.498;5.392;2022-07-29T19:43:03;5.044;;;2.26;;
59986;SDS011;46181;51.498;5.392;2022-07-29T19:47:33;4.456;;;1.816;;
59986;SDS011;46181;51.498;5.392;2022-07-29T19:52:03;6.048;;;1.884;;
59986;SDS011;46181;51.498;5.392;2022-07-29T19:56:33;4.819999;;;1.708;;
59986;SDS011;46181;51.498;5.392;2022-07-29T20:01:05;5.008;;;1.9;;
59986;SDS011;46181;51.498;5.392;2022-07-29T20:05:34;4.84;;;2.516;;
59986;SDS011;46181;51.498;5.392;2022-07-29T20:10:03;6.352;;;3.079999;;
59986;SDS011;46181;51.498;5.392;2022-07-29T20:14:33;4.136001;;;1.892;;
59986;SDS011;46181;51.498;5.392;2022-07-29T20:19:03;4.948;;;1.816;;
59986;SDS011;46181;51.498;5.392;2022-07-29T20:23:33;5.02;;;1.684001;;
59986;SDS011;46181;51.498;5.392;2022-07-29T20:28:05;5.24;;;1.8;;
59986;SDS011;46181;51.498;5.392;2022-07-29T20:32:33;4.432;;;2.156;;
59986;SDS011;46181;51.498;5.392;2022-07-29T20:37:03;6.655999;;;2.200001;;
59986;SDS011;46181;51.498;5.392;2022-07-29T20:41:33;5.203999;;;1.72;;
59986;SDS011;46181;51.498;5.392;2022-07-29T20:46:03;5.276;;;2.168;;
59986;SDS011;46181;51.498;5.392;2022-07-29T20:50:33;6.532;;;1.964;;
59986;SDS011;46181;51.498;5.392;2022-07-29T20:55:03;8.155999;;;2.616;;
59986;SDS011;46181;51.498;5.392;2022-07-29T20:59:33;5.464;;;2.056;;
59986;SDS011;46181;51.498;5.392;2022-07-29T21:04:03;6.444;;;2.16;;
59986;SDS011;46181;51.498;5.392;2022-07-29T21:08:33;7.044001;;;2.460001;;
59986;SDS011;46181;51.498;5.392;2022-07-29T21:13:03;6.988;;;2.400001;;
59986;SDS011;46181;51.498;5.392;2022-07-29T21:17:33;5.880001;;;2.268;;
59986;SDS011;46181;51.498;5.392;2022-07-29T21:22:03;8.964002;;;2.007999;;
59986;SDS011;46181;51.498;5.392;2022-07-29T21:26:33;6.823999;;;2.172;;
59986;SDS011;46181;51.498;5.392;2022-07-29T21:31:04;4.24;;;2.144;;
59986;SDS011;46181;51.498;5.392;2022-07-29T21:35:33;5.84;;;2.264;;
59986;SDS011;46181;51.498;5.392;2022-07-29T21:40:03;6.796;;;2.184;;
59986;SDS011;46181;51.498;5.392;2022-07-29T21:44:33;5.656;;;2.2;;
59986;SDS011;46181;51.498;5.392;2022-07-29T21:49:03;4.868001;;;2;;
59986;SDS011;46181;51.498;5.392;2022-07-29T21:53:33;5.619999;;;1.956;;
59986;SDS011;46181;51.498;5.392;2022-07-29T21:58:03;6.132;;;2.224;;
59986;SDS011;46181;51.498;5.392;2022-07-29T22:02:33;4.304;;;2.132;;
59986;SDS011;46181;51.498;5.392;2022-07-29T22:07:03;6.735999;;;2.228;;
59986;SDS011;46181;51.498;5.392;2022-07-29T22:11:33;4.864;;;2.132;;
59986;SDS011;46181;51.498;5.392;2022-07-29T22:16:03;5.052;;;2.376;;
59986;SDS011;46181;51.498;5.392;2022-07-29T22:20:33;5.799999;;;2.416001;;
59986;SDS011;46181;51.498;5.392;2022-07-29T22:25:03;7.255999;;;2.332;;
59986;SDS011;46181;51.498;5.392;2022-07-29T22:29:33;7.024;;;2.168;;
59986;SDS011;46181;51.498;5.392;2022-07-29T22:34:03;8.144;;;2.932;;
59986;SDS011;46181;51.498;5.392;2022-07-29T22:38:33;8.951998;;;2.476;;
59986;SDS011;46181;51.498;5.392;2022-07-29T22:43:03;6.112;;;2.472;;
59986;SDS011;46181;51.498;5.392;2022-07-29T22:47:33;7.748001;;;2.599999;;
59986;SDS011;46181;51.498;5.392;2022-07-29T22:52:03;8.208;;;2.732;;
59986;SDS011;46181;51.498;5.392;2022-07-29T22:56:33;5.98;;;2.424001;;
59986;SDS011;46181;51.498;5.392;2022-07-29T23:01:03;7.396;;;2.672;;
59986;SDS011;46181;51.498;5.392;2022-07-29T23:05:33;5.816;;;2.48;;
59986;SDS011;46181;51.498;5.392;2022-07-29T23:10:03;6.012001;;;2.6;;
59986;SDS011;46181;51.498;5.392;2022-07-29T23:14:33;11.152;;;2.596;;
59986;SDS011;46181;51.498;5.392;2022-07-29T23:19:03;8.520001;;;2.596;;
59986;SDS011;46181;51.498;5.392;2022-07-29T23:23:33;5.031999;;;2.536;;
59986;SDS011;46181;51.498;5.392;2022-07-29T23:28:03;8.332;;;2.956;;
59986;SDS011;46181;51.498;5.392;2022-07-29T23:32:33;8.499999;;;2.559999;;
59986;SDS011;46181;51.498;5.392;2022-07-29T23:37:03;10.104;;;3.216;;
59986;SDS011;46181;51.498;5.392;2022-07-29T23:41:33;8.172001;;;2.964;;
59986;SDS011;46181;51.498;5.392;2022-07-29T23:46:03;6.44;;;3.116;;
59986;SDS011;46181;51.498;5.392;2022-07-29T23:50:33;9.431999;;;3.156;;
59986;SDS011;46181;51.498;5.392;2022-07-29T23:55:03;8.576;;;3.131999;;
59986;SDS011;46181;51.498;5.392;2022-07-29T23:59:33;6.987999;;;3.420001;;
